Dafoe, Canada
Current Conditions -  °F | °C
As of 11:00 AM on Friday 24 Oct 2014 (Local Time) from CYQR Reporting Station
Broken Clouds Broken Clouds  
Wind Chill: 54°   Ceiling: 24000
Heat Index: 54°   Visibility: 15mi
Dew Point: 36°   Wind: 21mph
Humidity: 51%   Direction: 290°WNW
Pressure: 29.8"   Gusts: 30mph
Location:  51.75°N, 104.53°W
Report Text: CYQR 241700Z 29018G26KT 15SM BKN240 12/02 A2980 RMK CI6 SLP104 DENSITY ALT 2000FT
Loading
Personal Weather Stations






























Interactive Weather Map
Tropical Storm Tracking
New forecast layout! Learn more

10-Day Weather Forecast

Advertisements
Track Severe Weather on mobile